Time;durP1;ratioP1;P1;durP2;ratioP2;P2;SDS_P1;SDS_P2;PMS_P1;PMS_P2;Temp;Humidity;BMP_temperature;BMP_pressure;BME280_temperature;BME280_humidity;BME280_pressure;Samples;Min_cycle;Max_cycle;Signal;HPM_P1;HPM_P2
2020/06/03 00:03:51;;;;;;;5;2;;;;;;;16.49;56.37207;953.0378;;;;
2020/06/03 00:06:20;;;;;;;4.9;1.9;;;;;;;16.56;55.55371;953.0432;;;;
2020/06/03 00:09:23;;;;;;;5.8;1.8;;;;;;;16.2;56.00977;953.0662;;;;
2020/06/03 00:21:23;;;;;;;4.4;1.9;;;;;;;15.91;57.75586;953.0637;;;;
2020/06/03 00:23:45;;;;;;;4.6;1.7;;;;;;;15.87;57.62207;952.9983;;;;
2020/06/03 00:25:52;;;;;;;4.4;1.8;;;;;;;15.81;58.5918;952.9819;;;;
2020/06/03 00:35:41;;;;;;;4.5;2;;;;;;;15.84;57.78125;952.9222;;;;
2020/06/03 00:40:23;;;;;;;4.8;2;;;;;;;15.68;58.48242;952.9169;;;;
2020/06/03 00:42:55;;;;;;;4.8;2.1;;;;;;;15.71;58.14648;952.8666;;;;
2020/06/03 00:50:03;;;;;;;3.3;1.9;;;;;;;15.47;59.04883;952.886;;;;
2020/06/03 00:52:28;;;;;;;3.8;2.2;;;;;;;15.46;59.56934;952.863;;;;
2020/06/03 00:54:50;;;;;;;4.7;2.1;;;;;;;15.42;59.88965;952.8709;;;;
2020/06/03 00:57:18;;;;;;;4.8;2.1;;;;;;;15.3;60.0127;952.8433;;;;
2020/06/03 01:02:28;;;;;;;5.2;2.2;;;;;;;15.22;60.62012;952.7908;;;;
2020/06/03 01:04:31;;;;;;;4.3;2.1;;;;;;;15.24;60.54102;952.7939;;;;
2020/06/03 01:07:05;;;;;;;3.7;2.4;;;;;;;15.21;60.72168;952.818;;;;
2020/06/03 01:11:14;;;;;;;4.6;2.4;;;;;;;15.23;60.50391;952.8443;;;;
2020/06/03 01:11:54;;;;;;;4.9;2.3;;;;;;;15.18;60.74023;952.774;;;;
2020/06/03 01:16:51;;;;;;;3.2;2.2;;;;;;;15.14;60.97949;952.6769;;;;
2020/06/03 01:19:03;;;;;;;2.8;2;;;;;;;15.07;61.29688;952.6633;;;;
2020/06/03 01:24:03;;;;;;;4.8;1.7;;;;;;;15.19;60.54492;952.5801;;;;
2020/06/03 01:26:36;;;;;;;4;2;;;;;;;15.07;60.71387;952.6036;;;;
2020/06/03 01:28:49;;;;;;;4.2;1.9;;;;;;;15.08;60.87891;952.5872;;;;
2020/06/03 01:36:47;;;;;;;3.8;1.6;;;;;;;15.05;60.57324;952.5095;;;;
2020/06/03 01:38:45;;;;;;;3;1.8;;;;;;;15.05;60.87402;952.4497;;;;
2020/06/03 01:41:02;;;;;;;4.9;2;;;;;;;15.02;60.55566;952.4393;;;;
2020/06/03 01:43:22;;;;;;;3.4;1.9;;;;;;;15.13;60.58301;952.4067;;;;
2020/06/03 01:46:02;;;;;;;3.9;2.1;;;;;;;15.02;61.59082;952.3899;;;;
2020/06/03 01:48:24;;;;;;;4;2.3;;;;;;;14.98;62.1543;952.4017;;;;
2020/06/03 01:50:41;;;;;;;4.7;2.4;;;;;;;14.94;62.24219;952.335;;;;
2020/06/03 01:53:08;;;;;;;3.6;2.4;;;;;;;14.93;63.20703;952.3129;;;;
2020/06/03 01:55:44;;;;;;;3.7;2.4;;;;;;;14.94;63.20703;952.2996;;;;
2020/06/03 01:58:09;;;;;;;6.2;2.5;;;;;;;14.94;63.37012;952.2159;;;;
2020/06/03 02:03:07;;;;;;;4.4;2.7;;;;;;;14.93;63.68262;952.1161;;;;
2020/06/03 02:07:50;;;;;;;4.4;2.6;;;;;;;14.87;64.18359;952.1271;;;;
2020/06/03 02:10:18;;;;;;;4.7;2.6;;;;;;;14.83;64.45898;952.1414;;;;
2020/06/03 02:12:43;;;;;;;4.6;2.6;;;;;;;14.71;64.68457;952.0728;;;;
2020/06/03 02:15:08;;;;;;;6;2.6;;;;;;;14.72;64.8252;952.0583;;;;
2020/06/03 02:17:57;;;;;;;3.5;2.4;;;;;;;14.68;64.78516;951.9829;;;;
2020/06/03 02:20:00;;;;;;;4.8;2.3;;;;;;;14.67;64.88965;951.9691;;;;
2020/06/03 02:22:28;;;;;;;4.5;2.3;;;;;;;14.66;65.11816;951.9536;;;;
2020/06/03 02:25:06;;;;;;;4.5;2.3;;;;;;;14.59;65.52637;951.878;;;;
2020/06/03 02:29:43;;;;;;;3.5;2.3;;;;;;;14.64;65.20801;951.8661;;;;
2020/06/03 02:34:49;;;;;;;4.7;2.3;;;;;;;14.59;64.94629;951.8452;;;;
2020/06/03 02:39:37;;;;;;;4.4;2.2;;;;;;;14.58;64.68945;951.7388;;;;
2020/06/03 02:44:24;;;;;;;4.7;2.1;;;;;;;14.41;65.58008;951.7817;;;;
2020/06/03 02:46:54;;;;;;;5.1;2.3;;;;;;;14.33;65.82422;951.7277;;;;
2020/06/03 02:49:18;;;;;;;4.2;2.2;;;;;;;14.26;65.96484;951.7141;;;;
2020/06/03 02:54:05;;;;;;;4.2;2;;;;;;;14.45;64.51855;951.7086;;;;
2020/06/03 02:56:31;;;;;;;3.6;2.3;;;;;;;14.44;63.51855;951.6675;;;;
2020/06/03 02:59:01;;;;;;;4.1;1.9;;;;;;;14.47;63.68457;951.6885;;;;
2020/06/03 03:06:18;;;;;;;4.7;2.2;;;;;;;14.28;63.72852;951.591;;;;
2020/06/03 03:08:55;;;;;;;5.3;2.5;;;;;;;14.36;63.78516;951.6222;;;;
2020/06/03 03:11:12;;;;;;;7.5;2.3;;;;;;;14.35;63.84277;951.5886;;;;
2020/06/03 03:13:37;;;;;;;6.2;2.6;;;;;;;14.29;63.80957;951.645;;;;
2020/06/03 03:16:18;;;;;;;7.5;2.4;;;;;;;14.28;63.18164;951.6295;;;;
2020/06/03 03:18:36;;;;;;;4.9;2.2;;;;;;;14.26;64.00293;951.6519;;;;
2020/06/03 03:20:59;;;;;;;3.9;2.2;;;;;;;14.24;63.74316;951.6234;;;;
2020/06/03 03:23:25;;;;;;;6;2.4;;;;;;;14.17;63.9668;951.6124;;;;
2020/06/03 03:25:44;;;;;;;5.3;2.4;;;;;;;14.1;64.1084;951.5556;;;;
2020/06/03 03:28:08;;;;;;;6.5;2.3;;;;;;;14.14;63.7998;951.5592;;;;
2020/06/03 03:30:41;;;;;;;4.3;2.3;;;;;;;14.1;64.24609;951.5574;;;;
2020/06/03 03:33:22;;;;;;;5.7;2.5;;;;;;;14.09;64.1416;951.5975;;;;
2020/06/03 03:35:35;;;;;;;5.5;2.5;;;;;;;14.15;63.87109;951.5258;;;;
2020/06/03 03:38:07;;;;;;;7.1;2.8;;;;;;;14.12;63.41406;951.4802;;;;
2020/06/03 03:40:18;;;;;;;5.5;2.7;;;;;;;14.03;64.1543;951.4358;;;;
2020/06/03 03:42:47;;;;;;;6.1;2.5;;;;;;;14.12;64.22559;951.4598;;;;
2020/06/03 03:45:21;;;;;;;4.7;2.5;;;;;;;14.12;63.72656;951.4144;;;;
2020/06/03 03:47:39;;;;;;;5.8;2.8;;;;;;;14.15;64.24219;951.38;;;;
2020/06/03 03:50:13;;;;;;;4.2;2.5;;;;;;;14.19;65.16406;951.355;;;;
2020/06/03 03:55:00;;;;;;;5.3;2.6;;;;;;;14.05;64.43652;951.3822;;;;
2020/06/03 03:57:25;;;;;;;4.3;2.5;;;;;;;14.17;63.93164;951.3575;;;;
2020/06/03 03:59:58;;;;;;;5.3;2.4;;;;;;;14.11;64.02637;951.3129;;;;
2020/06/03 04:02:52;;;;;;;4.7;2.5;;;;;;;14.17;63.69922;951.2845;;;;
2020/06/03 04:05:11;;;;;;;5.6;2.4;;;;;;;14.2;63.64648;951.3261;;;;
2020/06/03 04:11:52;;;;;;;5.2;2.8;;;;;;;14.16;63.41992;951.3084;;;;
2020/06/03 04:14:31;;;;;;;5.4;2.6;;;;;;;14.21;63.37988;951.327;;;;
2020/06/03 04:19:09;;;;;;;4;2.6;;;;;;;14.16;63.65137;951.3101;;;;
2020/06/03 04:21:33;;;;;;;5.1;2.5;;;;;;;14.12;64.05176;951.3811;;;;
2020/06/03 04:23:58;;;;;;;4.9;2.5;;;;;;;14.19;63.7832;951.3942;;;;
2020/06/03 04:26:27;;;;;;;5.3;2.6;;;;;;;14.16;64.20898;951.3519;;;;
2020/06/03 04:28:51;;;;;;;6.7;2.6;;;;;;;14.05;65.10938;951.4084;;;;
2020/06/03 04:31:42;;;;;;;5.9;2.8;;;;;;;14.07;64.2998;951.3256;;;;
2020/06/03 04:34:06;;;;;;;7.4;3.2;;;;;;;14.25;63.43262;951.3308;;;;
2020/06/03 04:36:07;;;;;;;6.9;2.8;;;;;;;14.28;64.00586;951.3403;;;;
2020/06/03 04:38:31;;;;;;;7.6;3;;;;;;;14.37;64.54102;951.2542;;;;
2020/06/03 04:41:07;;;;;;;8.7;3.1;;;;;;;14.44;64.58691;951.2388;;;;
2020/06/03 04:43:28;;;;;;;6.6;3;;;;;;;14.42;63.81738;951.2751;;;;
2020/06/03 04:47:32;;;;;;;5.3;2.7;;;;;;;14.39;63.89453;951.2908;;;;
2020/06/03 04:49:56;;;;;;;8;3;;;;;;;14.47;63.37109;951.2761;;;;
2020/06/03 04:52:30;;;;;;;5.2;2.6;;;;;;;14.57;63.9209;951.2928;;;;
2020/06/03 04:54:54;;;;;;;7.9;2.6;;;;;;;14.64;63.38379;951.2831;;;;
2020/06/03 04:57:16;;;;;;;7.4;2.5;;;;;;;14.67;62.77246;951.2386;;;;
2020/06/03 04:59:43;;;;;;;6.9;2.9;;;;;;;14.84;63.49414;951.2548;;;;
2020/06/03 05:02:08;;;;;;;4.5;2.6;;;;;;;14.85;63.11328;951.2168;;;;
2020/06/03 05:04:33;;;;;;;5.9;2.8;;;;;;;14.88;63.6748;951.2863;;;;
2020/06/03 05:07:00;;;;;;;5.7;2.5;;;;;;;14.8;62.75781;951.2615;;;;
2020/06/03 05:11:55;;;;;;;7;2.4;;;;;;;14.94;62.87012;951.2239;;;;
2020/06/03 05:15:10;;;;;;;4.1;2.5;;;;;;;14.96;63.1748;951.2141;;;;
2020/06/03 05:16:44;;;;;;;5;2.4;;;;;;;15.1;62.71875;951.1859;;;;
2020/06/03 05:19:16;;;;;;;3.3;2.2;;;;;;;15.08;62.58691;951.1561;;;;
2020/06/03 05:21:34;;;;;;;6.8;2.4;;;;;;;15.06;62.17871;951.1347;;;;
2020/06/03 05:24:37;;;;;;;5;2.5;;;;;;;15.06;62.1084;951.1479;;;;
2020/06/03 05:26:34;;;;;;;4.8;2.5;;;;;;;15.03;61.32422;951.1188;;;;
2020/06/03 05:28:59;;;;;;;5.8;2.2;;;;;;;15.16;61.68164;951.1342;;;;
2020/06/03 05:31:50;;;;;;;4.9;2.2;;;;;;;15.33;61.49414;951.0904;;;;
2020/06/03 05:33:41;;;;;;;7.3;2.2;;;;;;;15.35;60.18359;951.1147;;;;
2020/06/03 05:36:03;;;;;;;5.7;2.6;;;;;;;15.36;59.70605;951.1171;;;;
2020/06/03 05:38:37;;;;;;;6.8;2.3;;;;;;;15.49;60.62109;951.1546;;;;
2020/06/03 05:41:04;;;;;;;4.5;2.2;;;;;;;15.69;59.07617;951.0644;;;;
2020/06/03 05:43:28;;;;;;;4.8;2.2;;;;;;;15.78;60.24121;951.1041;;;;
2020/06/03 05:45:51;;;;;;;5.7;2.1;;;;;;;15.82;60.65625;951.0444;;;;
2020/06/03 05:48:35;;;;;;;6.2;2;;;;;;;15.86;60.37012;951.0912;;;;
2020/06/03 05:53:19;;;;;;;11.6;3;;;;;;;15.95;59.15918;951.0983;;;;
2020/06/03 05:55:42;;;;;;;6.8;2.2;;;;;;;15.98;61.13184;951.1312;;;;
2020/06/03 05:58:07;;;;;;;6.3;2.4;;;;;;;16.12;60.08008;951.1456;;;;
2020/06/03 06:03:18;;;;;;;9;2.9;;;;;;;16.22;59.62695;951.1267;;;;
2020/06/03 06:05:29;;;;;;;9.7;4;;;;;;;16.24;60.69043;951.0991;;;;
2020/06/03 06:07:54;;;;;;;9.8;3.3;;;;;;;16.3;60.79102;951.0455;;;;
2020/06/03 06:12:50;;;;;;;8.5;2.5;;;;;;;16.34;60.01563;951.0549;;;;
2020/06/03 06:15:47;;;;;;;5.7;2.9;;;;;;;16.42;60.93652;951.017;;;;
2020/06/03 06:17:54;;;;;;;8.5;2.5;;;;;;;16.49;59.87207;950.9684;;;;
2020/06/03 06:20:05;;;;;;;7.9;2.5;;;;;;;16.56;60.52539;951.0178;;;;
2020/06/03 06:22:32;;;;;;;7.9;2.5;;;;;;;16.66;59.11426;950.9872;;;;
2020/06/03 06:24:57;;;;;;;7.6;2.3;;;;;;;16.75;58.96484;950.9988;;;;
2020/06/03 06:27:24;;;;;;;5.2;2.2;;;;;;;16.74;58.85742;950.9659;;;;
2020/06/03 06:29:50;;;;;;;5.4;2.4;;;;;;;16.83;60.1543;950.939;;;;
2020/06/03 06:34:35;;;;;;;7.5;3.6;;;;;;;16.89;58.57422;950.9427;;;;
2020/06/03 06:37:02;;;;;;;7.6;3.6;;;;;;;17.05;58.74707;950.92;;;;
2020/06/03 06:39:40;;;;;;;7.8;3.3;;;;;;;17.14;58.66602;950.8631;;;;
2020/06/03 06:41:47;;;;;;;5.4;2.4;;;;;;;17.26;57.61816;950.8738;;;;
2020/06/03 06:44:42;;;;;;;5.7;2.3;;;;;;;17.23;58.66602;950.8553;;;;
2020/06/03 06:46:45;;;;;;;5.5;2;;;;;;;17.27;59.79199;950.8506;;;;
2020/06/03 06:49:10;;;;;;;4.7;1.8;;;;;;;17.34;58.37695;950.8051;;;;
2020/06/03 06:51:52;;;;;;;3.9;2;;;;;;;17.48;57.5293;950.7885;;;;
2020/06/03 06:54:01;;;;;;;5.3;2;;;;;;;17.54;57.49121;950.8304;;;;
2020/06/03 06:56:23;;;;;;;6.1;2.1;;;;;;;17.57;56.76855;950.7433;;;;
2020/06/03 06:58:50;;;;;;;9.2;2.1;;;;;;;17.67;55.92871;950.7583;;;;
2020/06/03 07:01:26;;;;;;;9.7;2.2;;;;;;;17.65;55.63379;950.7531;;;;
2020/06/03 07:04:16;;;;;;;6.4;2.5;;;;;;;17.65;56.05566;950.73;;;;
2020/06/03 07:06:06;;;;;;;7.4;2.3;;;;;;;17.75;56.53613;950.7302;;;;
2020/06/03 07:08:28;;;;;;;7.9;2.4;;;;;;;17.92;56.6748;950.7347;;;;
2020/06/03 07:11:01;;;;;;;4.4;2;;;;;;;17.96;55.15723;950.7296;;;;
2020/06/03 07:13:26;;;;;;;6.9;2.4;;;;;;;18.17;55.28906;950.7262;;;;
2020/06/03 07:19:04;;;;;;;8.5;2.2;;;;;;;18.41;54.2998;950.7092;;;;
2020/06/03 07:20:54;;;;;;;6.3;2.1;;;;;;;18.46;53.41602;950.7617;;;;
2020/06/03 07:23:10;;;;;;;6.5;2.1;;;;;;;18.42;54.03125;950.7536;;;;
2020/06/03 07:25:36;;;;;;;6.6;1.9;;;;;;;18.59;54.14648;950.7177;;;;
2020/06/03 07:28:00;;;;;;;4.6;1.9;;;;;;;18.72;53.8457;950.6951;;;;
2020/06/03 07:30:32;;;;;;;7.6;2.1;;;;;;;18.83;53.07227;950.6763;;;;
2020/06/03 07:33:23;;;;;;;7.1;1.7;;;;;;;18.89;53.45703;950.6553;;;;
2020/06/03 07:35:30;;;;;;;4.7;1.8;;;;;;;18.96;52.45605;950.5708;;;;
2020/06/03 07:38:23;;;;;;;5.5;1.8;;;;;;;19.06;52.05664;950.545;;;;
2020/06/03 07:40:46;;;;;;;3.5;1.5;;;;;;;19.18;51.77832;950.5391;;;;
2020/06/03 07:45:39;;;;;;;6.9;1.7;;;;;;;19.47;51.81055;950.4635;;;;
2020/06/03 07:47:51;;;;;;;5.2;1.4;;;;;;;19.54;50.67969;950.3953;;;;
2020/06/03 07:50:16;;;;;;;4.5;1.5;;;;;;;19.65;50.5752;950.4235;;;;
2020/06/03 07:52:54;;;;;;;5;1.8;;;;;;;19.72;50.52539;950.4154;;;;
2020/06/03 07:55:18;;;;;;;5.2;1.6;;;;;;;19.78;50.22656;950.3995;;;;
2020/06/03 07:57:44;;;;;;;2.7;1.4;;;;;;;19.96;49.72949;950.4186;;;;
2020/06/03 08:05:14;;;;;;;3.5;1.2;;;;;;;20.12;48.5;950.3903;;;;
2020/06/03 08:07:29;;;;;;;3.2;1.4;;;;;;;20.18;47.48242;950.3344;;;;
2020/06/03 08:09:49;;;;;;;3.5;1.3;;;;;;;20.33;47.37012;950.3408;;;;
2020/06/03 08:12:29;;;;;;;4.4;1.4;;;;;;;20.57;47.57227;950.3262;;;;
2020/06/03 08:14:46;;;;;;;4.3;1.7;;;;;;;20.71;47.2334;950.343;;;;
2020/06/03 08:22:17;;;;;;;3.4;1.3;;;;;;;20.88;46.94531;950.259;;;;
2020/06/03 08:26:50;;;;;;;2.5;1.3;;;;;;;21.19;44.4668;950.1588;;;;
2020/06/03 08:29:15;;;;;;;3.2;1.3;;;;;;;21.05;44.09863;950.1375;;;;
2020/06/03 08:31:54;;;;;;;3.1;1.3;;;;;;;21.22;44.94141;950.1346;;;;
2020/06/03 08:34:09;;;;;;;4.9;1.5;;;;;;;21.37;44.8623;950.1183;;;;
2020/06/03 08:36:40;;;;;;;4.5;1.3;;;;;;;21.71;43.43262;950.128;;;;
2020/06/03 08:39:03;;;;;;;3.8;1.4;;;;;;;21.97;42.58301;950.152;;;;
2020/06/03 08:41:27;;;;;;;3.6;1.3;;;;;;;21.95;41.93164;950.0847;;;;
2020/06/03 08:46:10;;;;;;;4.8;1.4;;;;;;;22.01;41.96191;950.0985;;;;
2020/06/03 08:48:36;;;;;;;3.5;1.2;;;;;;;22.15;40.84082;950.0989;;;;
2020/06/03 08:51:05;;;;;;;4.1;1;;;;;;;22.21;40.19531;950.0452;;;;
2020/06/03 08:53:30;;;;;;;5.2;1.1;;;;;;;22.2;39.95801;949.9494;;;;
2020/06/03 08:56:05;;;;;;;3.3;1.2;;;;;;;22.34;39.35645;949.9324;;;;
2020/06/03 08:58:18;;;;;;;3.6;1.4;;;;;;;22.38;40.24609;949.9402;;;;
2020/06/03 09:03:21;;;;;;;3.6;1.1;;;;;;;22.32;41.10352;949.9252;;;;
2020/06/03 09:08:03;;;;;;;4;1.2;;;;;;;22.46;42.12305;949.834;;;;
2020/06/03 09:10:41;;;;;;;4.5;1.2;;;;;;;22.47;40.31348;949.7924;;;;
2020/06/03 09:13:12;;;;;;;4.1;1.1;;;;;;;22.58;40.83203;949.7651;;;;
2020/06/03 09:16:10;;;;;;;2.4;1.2;;;;;;;22.72;41.24707;949.6944;;;;
2020/06/03 09:18:04;;;;;;;3.5;1.2;;;;;;;22.85;40.60938;949.6617;;;;
2020/06/03 09:20:27;;;;;;;4.3;1.4;;;;;;;22.99;40.10156;949.6497;;;;
2020/06/03 09:22:48;;;;;;;4.4;1.4;;;;;;;22.85;39.58008;949.6867;;;;
2020/06/03 09:27:34;;;;;;;6.8;2.5;;;;;;;23.07;40.55762;949.5931;;;;
2020/06/03 09:29:59;;;;;;;2.8;1.1;;;;;;;22.9;40.1875;949.543;;;;
2020/06/03 09:32:33;;;;;;;3.6;1.5;;;;;;;23.03;39.0498;949.5718;;;;
2020/06/03 09:34:56;;;;;;;4.7;1.4;;;;;;;22.94;38.29688;949.4667;;;;
2020/06/03 09:37:14;;;;;;;2.6;1.1;;;;;;;22.98;38.64453;949.4634;;;;
2020/06/03 09:39:44;;;;;;;2.4;1;;;;;;;23.08;38.67578;949.4648;;;;
2020/06/03 09:42:05;;;;;;;3.3;1.3;;;;;;;23.2;38.36621;949.3882;;;;
2020/06/03 09:44:30;;;;;;;4.4;1.2;;;;;;;23.27;37.68555;949.3591;;;;
2020/06/03 09:47:17;;;;;;;3.2;1.1;;;;;;;23.33;37.69043;949.3322;;;;
2020/06/03 09:49:21;;;;;;;3.5;1.3;;;;;;;23.39;38.48926;949.2854;;;;
2020/06/03 09:51:51;;;;;;;4.6;1.3;;;;;;;23.43;37.05957;949.236;;;;
2020/06/03 09:54:11;;;;;;;4.3;1.2;;;;;;;23.48;36.25684;949.252;;;;
2020/06/03 09:56:37;;;;;;;3.5;1.5;;;;;;;23.59;36.51465;949.1674;;;;
2020/06/03 09:59:01;;;;;;;3.8;1.1;;;;;;;23.56;35.80176;949.1093;;;;
2020/06/03 10:01:29;;;;;;;2.9;1.2;;;;;;;23.74;35.7334;949.0928;;;;
2020/06/03 10:04:08;;;;;;;4.1;1.2;;;;;;;23.72;35.41113;949.0502;;;;
2020/06/03 10:06:22;;;;;;;2.2;1;;;;;;;23.68;34.30469;949.0616;;;;
2020/06/03 10:08:42;;;;;;;3.4;1.1;;;;;;;23.37;34.44629;948.9766;;;;
2020/06/03 10:11:10;;;;;;;2.9;0.9;;;;;;;23.52;35.86914;948.9836;;;;
2020/06/03 10:13:35;;;;;;;4.4;1.1;;;;;;;23.9;34.09668;948.9744;;;;
2020/06/03 10:16:08;;;;;;;1.6;0.8;;;;;;;23.9;33.82324;948.8987;;;;
2020/06/03 10:18:33;;;;;;;3.4;1.2;;;;;;;23.9;34.72559;948.9094;;;;
2020/06/03 10:21:12;;;;;;;3.3;1.4;;;;;;;23.84;33.39258;948.8882;;;;
2020/06/03 10:25:44;;;;;;;3.7;1.3;;;;;;;24.09;33.74316;948.929;;;;
2020/06/03 10:30:39;;;;;;;1.8;0.9;;;;;;;24.1;33.3291;948.8134;;;;
2020/06/03 10:33:34;;;;;;;4;1.1;;;;;;;24.12;33.45996;948.8135;;;;
2020/06/03 10:35:25;;;;;;;3;1.1;;;;;;;24.37;33.19434;948.7335;;;;
2020/06/03 10:37:56;;;;;;;2.5;1;;;;;;;24.46;32.86816;948.7791;;;;
2020/06/03 10:40:15;;;;;;;4.3;1.1;;;;;;;24.67;32.90723;948.7683;;;;
2020/06/03 10:42:56;;;;;;;3.6;1.1;;;;;;;24.71;32.51758;948.741;;;;
2020/06/03 10:45:18;;;;;;;3;1.3;;;;;;;24.57;32.37695;948.7928;;;;
2020/06/03 10:50:06;;;;;;;2.7;1.1;;;;;;;24.69;33.08789;948.6792;;;;
2020/06/03 10:53:23;;;;;;;6.6;1.4;;;;;;;24.77;33.2832;948.7195;;;;
2020/06/03 10:54:47;;;;;;;4.1;1;;;;;;;24.74;33.38867;948.6686;;;;
2020/06/03 10:57:21;;;;;;;4;1.3;;;;;;;24.73;33.99414;948.6506;;;;
2020/06/03 10:59:42;;;;;;;3.7;1.1;;;;;;;24.37;33.89551;948.6351;;;;
2020/06/03 11:02:07;;;;;;;3.1;1.2;;;;;;;24.41;34.3252;948.6292;;;;
2020/06/03 11:04:31;;;;;;;1.8;1.4;;;;;;;24.53;34.56055;948.5806;;;;
2020/06/03 11:07:02;;;;;;;3.1;1.1;;;;;;;24.64;34.24805;948.6203;;;;
2020/06/03 11:09:26;;;;;;;2.2;1;;;;;;;24.39;34.05078;948.5472;;;;
2020/06/03 11:15:24;;;;;;;4.2;1;;;;;;;24.36;33.76367;948.5558;;;;
2020/06/03 11:21:02;;;;;;;2.8;0.9;;;;;;;24.61;34.19824;948.568;;;;
2020/06/03 11:23:32;;;;;;;3.1;1.1;;;;;;;24.66;33.86914;948.4946;;;;
2020/06/03 11:25:53;;;;;;;1.9;0.8;;;;;;;24.67;33.32324;948.433;;;;
2020/06/03 11:28:17;;;;;;;3.4;1.1;;;;;;;24.72;33.82617;948.3663;;;;
2020/06/03 11:32:02;;;;;;;2.9;0.9;;;;;;;24.52;33.55078;948.3242;;;;
2020/06/03 11:34:58;;;;;;;4.2;0.9;;;;;;;24.45;34.29297;948.3802;;;;
2020/06/03 11:41:18;;;;;;;2.6;1.1;;;;;;;24.54;34.75195;948.1959;;;;
2020/06/03 11:43:37;;;;;;;3.8;1.1;;;;;;;24.6;35.04199;948.1533;;;;
2020/06/03 11:46:10;;;;;;;2.7;1.1;;;;;;;24.41;35.66797;948.1809;;;;
2020/06/03 11:48:38;;;;;;;4.1;1.2;;;;;;;24.53;35.85547;948.14;;;;
2020/06/03 11:53:36;;;;;;;5;1.2;;;;;;;24.44;35.20703;948.0956;;;;
2020/06/03 11:56:16;;;;;;;4.2;1.2;;;;;;;24.46;34.78027;947.9953;;;;
2020/06/03 11:58:46;;;;;;;2.9;1.1;;;;;;;24.58;35.1709;947.9803;;;;
2020/06/03 12:03:40;;;;;;;3.7;1.2;;;;;;;24.52;33.96582;947.912;;;;
2020/06/03 12:06:10;;;;;;;2.2;0.9;;;;;;;24.46;33.97266;947.872;;;;
2020/06/03 12:08:32;;;;;;;3.1;0.9;;;;;;;24.54;34.41895;947.8134;;;;
2020/06/03 12:11:22;;;;;;;2.9;0.9;;;;;;;24.46;33.97266;947.7431;;;;
2020/06/03 12:13:25;;;;;;;3.6;1;;;;;;;24.52;33.65625;947.7358;;;;
2020/06/03 12:16:25;;;;;;;5.1;1;;;;;;;24.5;33.42969;947.7084;;;;
2020/06/03 12:18:23;;;;;;;3.9;1.1;;;;;;;24.51;33.33496;947.6738;;;;
2020/06/03 12:20:58;;;;;;;2.3;0.9;;;;;;;24.35;33.73926;947.6612;;;;
2020/06/03 12:23:10;;;;;;;4.8;1;;;;;;;24.41;34.37305;947.6339;;;;
2020/06/03 12:28:00;;;;;;;4.1;1.1;;;;;;;24.61;34.26953;947.6887;;;;
2020/06/03 12:33:03;;;;;;;2.2;1;;;;;;;24.6;33.90137;947.726;;;;
2020/06/03 12:35:29;;;;;;;2.2;1;;;;;;;24.47;33.86719;947.6808;;;;
2020/06/03 12:39:06;;;;;;;4;1.2;;;;;;;24.61;33.9248;947.677;;;;
2020/06/03 12:40:11;;;;;;;4.6;1.1;;;;;;;24.64;33.96289;947.5836;;;;
2020/06/03 12:46:46;;;;;;;3;1.2;;;;;;;24.2;35.40234;947.476;;;;
2020/06/03 12:47:41;;;;;;;2.4;1.1;;;;;;;24.42;35.38379;947.5126;;;;
2020/06/03 12:52:25;;;;;;;3.8;1.1;;;;;;;24.66;35.23633;947.4902;;;;
2020/06/03 12:54:48;;;;;;;3;1.2;;;;;;;24.32;36.12402;947.437;;;;
2020/06/03 12:57:10;;;;;;;3.8;1.2;;;;;;;24.75;36.12305;947.4178;;;;
2020/06/03 12:59:36;;;;;;;4.5;1.2;;;;;;;24.83;35.80859;947.3566;;;;
2020/06/03 13:06:35;;;;;;;4.6;1.3;;;;;;;25.17;35.7998;947.3251;;;;
2020/06/03 13:13:56;;;;;;;3.8;1.3;;;;;;;24.88;35.58594;947.238;;;;
2020/06/03 13:16:31;;;;;;;3.3;1.2;;;;;;;25.09;36.06641;947.226;;;;
2020/06/03 13:21:03;;;;;;;4.8;1.3;;;;;;;25.4;35.41406;947.1505;;;;
2020/06/03 13:25:47;;;;;;;5.5;1.4;;;;;;;25.13;36.21289;947.0094;;;;
2020/06/03 13:28:12;;;;;;;3.9;1.4;;;;;;;25.03;35.47949;947.0058;;;;
2020/06/03 13:30:37;;;;;;;4.4;1.4;;;;;;;24.74;36.53711;946.9634;;;;
2020/06/03 13:33:02;;;;;;;3.4;1.3;;;;;;;24.86;36.13184;946.894;;;;
2020/06/03 13:35:27;;;;;;;3.4;1.2;;;;;;;24.89;36.06348;946.8505;;;;
2020/06/03 13:37:52;;;;;;;2.6;1.1;;;;;;;24.98;35.80859;946.8895;;;;
2020/06/03 13:45:33;;;;;;;3.2;1.3;;;;;;;24.81;36.4248;946.8411;;;;
2020/06/03 13:48:00;;;;;;;2.1;1;;;;;;;25;36.16602;946.8218;;;;
2020/06/03 13:50:05;;;;;;;3.6;1.2;;;;;;;24.97;35.7002;946.7942;;;;
2020/06/03 13:52:30;;;;;;;3.7;1.2;;;;;;;25.05;35.62402;946.7625;;;;
2020/06/03 13:54:55;;;;;;;2.7;1.2;;;;;;;25.15;35.23926;946.7681;;;;
2020/06/03 13:57:19;;;;;;;4.1;1.4;;;;;;;25.38;34.70996;946.7004;;;;
2020/06/03 14:02:10;;;;;;;2.6;1.2;;;;;;;25.7;34.28223;946.6573;;;;
2020/06/03 14:04:35;;;;;;;3;1.2;;;;;;;25.94;34.26465;946.7205;;;;
2020/06/03 14:07:00;;;;;;;4;1.1;;;;;;;25.94;31.68945;946.7059;;;;
2020/06/03 14:10:25;;;;;;;2.2;1;;;;;;;26.04;31.6377;946.6688;;;;
2020/06/03 14:14:15;;;;;;;2.1;1.1;;;;;;;25.96;32.41895;946.5909;;;;
2020/06/03 14:16:53;;;;;;;3.2;0.9;;;;;;;26.02;32.0293;946.5349;;;;
2020/06/03 14:21:36;;;;;;;2.1;1.1;;;;;;;25.8;32.00195;946.3868;;;;
2020/06/03 14:24:22;;;;;;;3.6;1;;;;;;;26.08;31.10449;946.3917;;;;
2020/06/03 14:28:48;;;;;;;3;0.8;;;;;;;26.09;31.81934;946.3225;;;;
2020/06/03 14:31:20;;;;;;;1.5;1;;;;;;;26.36;31.52832;946.3152;;;;
2020/06/03 14:33:41;;;;;;;1.8;0.9;;;;;;;26.31;31.83594;946.2522;;;;
2020/06/03 14:36:09;;;;;;;2.4;1;;;;;;;26.51;31.30078;946.2996;;;;
2020/06/03 14:40:54;;;;;;;2.3;1.3;;;;;;;26.62;30.7959;946.2338;;;;
2020/06/03 14:43:19;;;;;;;1.7;1;;;;;;;26.54;31.21875;946.1992;;;;
2020/06/03 14:45:48;;;;;;;4.5;1.3;;;;;;;26.73;30.95801;946.1906;;;;
2020/06/03 14:48:09;;;;;;;3.6;1.2;;;;;;;26.72;31.1123;946.1781;;;;
2020/06/03 14:50:34;;;;;;;4.6;1.2;;;;;;;26.81;32.09863;946.0873;;;;
2020/06/03 14:52:59;;;;;;;3.1;1.2;;;;;;;26.62;31.48828;946.0839;;;;
2020/06/03 14:55:26;;;;;;;3.7;1;;;;;;;26.43;31.90332;946.0541;;;;
2020/06/03 15:02:48;;;;;;;2.9;1;;;;;;;25.62;33.2041;945.9772;;;;
2020/06/03 15:05:13;;;;;;;3.9;1.1;;;;;;;25.48;34.00391;945.9355;;;;
2020/06/03 15:11:48;;;;;;;3.8;1.4;;;;;;;25.62;33.62109;945.8753;;;;
2020/06/03 15:15:36;;;;;;;3.1;1.1;;;;;;;25.27;34.26074;945.7986;;;;
2020/06/03 15:17:16;;;;;;;4.4;1.5;;;;;;;25.51;34.375;945.7043;;;;
2020/06/03 15:19:38;;;;;;;4.7;1.2;;;;;;;25.68;34.08887;945.6572;;;;
2020/06/03 15:22:07;;;;;;;2.8;1.2;;;;;;;25.79;33.8125;945.5391;;;;
2020/06/03 15:24:38;;;;;;;4.5;1.3;;;;;;;26.01;33.17383;945.6124;;;;
2020/06/03 15:27:04;;;;;;;5.1;1.1;;;;;;;25.85;29.25293;945.5708;;;;
2020/06/03 15:34:30;;;;;;;3.1;0.8;;;;;;;25.34;27.98145;945.6283;;;;
2020/06/03 15:36:41;;;;;;;3.9;1;;;;;;;25.15;28.45801;945.5385;;;;
2020/06/03 15:39:12;;;;;;;3.8;0.9;;;;;;;25.13;28.87305;945.6074;;;;
2020/06/03 15:44:16;;;;;;;5.5;1;;;;;;;24.17;33.78418;945.7352;;;;
2020/06/03 15:46:32;;;;;;;4;1;;;;;;;24.08;34.19336;945.7001;;;;
2020/06/03 15:56:40;;;;;;;5.3;1.3;;;;;;;23.78;35.20215;945.4745;;;;
2020/06/03 15:58:31;;;;;;;4.9;1.2;;;;;;;23.7;35.20801;945.3625;;;;
2020/06/03 16:05:53;;;;;;;3;1;;;;;;;23.69;35.43262;945.2025;;;;
2020/06/03 16:08:10;;;;;;;4.4;1;;;;;;;23.69;35.24316;945.1908;;;;
2020/06/03 16:16:58;;;;;;;3;1.1;;;;;;;23.6;34.45313;945.0076;;;;
2020/06/03 16:17:53;;;;;;;2.8;1.2;;;;;;;23.8;35.0498;945.0119;;;;
2020/06/03 16:22:56;;;;;;;3.1;1.2;;;;;;;23.7;34.40137;944.9575;;;;
2020/06/03 16:25:15;;;;;;;1.7;0.9;;;;;;;23.76;34.2998;944.9264;;;;
2020/06/03 16:27:45;;;;;;;2.5;1;;;;;;;23.83;33.85352;944.8747;;;;
2020/06/03 16:32:32;;;;;;;2.3;1.1;;;;;;;24.04;33.82227;944.8521;;;;
2020/06/03 16:34:58;;;;;;;3;1.1;;;;;;;24.17;34.7334;944.8226;;;;
2020/06/03 16:39:50;;;;;;;3.7;1.2;;;;;;;24.1;34.80078;944.7645;;;;
2020/06/03 16:42:23;;;;;;;2.1;1.1;;;;;;;23.85;34.31738;944.6902;;;;
2020/06/03 16:44:36;;;;;;;2.1;0.8;;;;;;;23.86;34.78223;944.6629;;;;
2020/06/03 16:49:25;;;;;;;2.8;1;;;;;;;23.92;34.94043;944.6786;;;;
2020/06/03 16:56:55;;;;;;;2.7;1;;;;;;;23.71;34.35449;944.5478;;;;
2020/06/03 17:06:20;;;;;;;4.2;1.2;;;;;;;23.65;34.72949;944.4825;;;;
2020/06/03 17:11:11;;;;;;;3;1.1;;;;;;;23.72;34.4502;944.438;;;;
2020/06/03 17:13:40;;;;;;;3.6;1.1;;;;;;;23.66;34.84863;944.4868;;;;
2020/06/03 17:18:32;;;;;;;2.6;1;;;;;;;23.54;34.41309;944.3979;;;;
2020/06/03 17:23:25;;;;;;;2.8;1;;;;;;;23.44;34.29785;944.3738;;;;
2020/06/03 17:25:38;;;;;;;7.8;1;;;;;;;23.45;34.53711;944.3655;;;;
2020/06/03 17:28:00;;;;;;;2.4;1;;;;;;;23.41;33.98828;944.3858;;;;
2020/06/03 17:30:31;;;;;;;2.5;1;;;;;;;23.38;34.55469;944.4305;;;;
2020/06/03 17:34:23;;;;;;;2.3;1;;;;;;;23.36;34.55273;944.3945;;;;
2020/06/03 17:35:29;;;;;;;1.5;0.9;;;;;;;23.33;34.65723;944.3856;;;;
2020/06/03 17:37:45;;;;;;;6.1;1.1;;;;;;;23.31;34.6084;944.3844;;;;
2020/06/03 17:40:04;;;;;;;1.9;0.9;;;;;;;23.35;34.54004;944.4016;;;;
2020/06/03 17:42:29;;;;;;;1.9;0.8;;;;;;;23.3;34.26367;944.3979;;;;
2020/06/03 17:47:19;;;;;;;1.2;0.9;;;;;;;23.29;34.07324;944.3597;;;;
2020/06/03 17:52:19;;;;;;;3.4;1;;;;;;;23.27;34.45117;944.3565;;;;
2020/06/03 17:54:53;;;;;;;2.8;1;;;;;;;23.3;34.54785;944.3747;;;;
2020/06/03 17:57:13;;;;;;;2.8;1.1;;;;;;;23.16;34.57324;944.3759;;;;
2020/06/03 18:06:49;;;;;;;2.7;1.2;;;;;;;22.98;34.44043;944.4464;;;;
2020/06/03 18:09:17;;;;;;;3.6;1.2;;;;;;;22.95;34.9707;944.454;;;;
2020/06/03 18:11:38;;;;;;;2.4;1.2;;;;;;;22.86;34.38379;944.4381;;;;
2020/06/03 18:18:52;;;;;;;2.1;0.9;;;;;;;22.73;34.69336;944.4291;;;;
2020/06/03 18:21:17;;;;;;;1.3;1;;;;;;;22.56;35.96973;944.4614;;;;
2020/06/03 18:23:54;;;;;;;2.6;1;;;;;;;22.62;36.45898;944.4771;;;;
2020/06/03 18:26:20;;;;;;;2.3;0.9;;;;;;;22.37;37.78613;944.4604;;;;
2020/06/03 18:28:32;;;;;;;4.2;1.2;;;;;;;22.37;38.33008;944.4896;;;;
2020/06/03 18:34:07;;;;;;;2.7;1;;;;;;;22.32;39.34277;944.4659;;;;
2020/06/03 18:36:00;;;;;;;5.2;1.3;;;;;;;22.08;40.4209;944.4738;;;;
2020/06/03 18:43:08;;;;;;;4;1.1;;;;;;;21.86;41.32129;944.4869;;;;